createdAt,value
2019-03-28T00:01:19.448Z,1.30
2019-03-28T00:03:40.175Z,1.10
2019-03-28T00:06:00.792Z,1.10
2019-03-28T00:08:21.254Z,1.20
2019-03-28T00:10:41.930Z,1.10
2019-03-28T00:13:02.661Z,1.10
2019-03-28T00:15:23.379Z,1.00
2019-03-28T00:17:43.905Z,0.90
2019-03-28T00:20:05.657Z,0.90
2019-03-28T00:22:33.752Z,0.90
2019-03-28T00:24:57.051Z,0.90
2019-03-28T00:27:17.283Z,0.80
2019-03-28T00:29:37.892Z,0.90
2019-03-28T00:31:58.516Z,0.90
2019-03-28T00:34:20.123Z,0.90
2019-03-28T00:36:40.700Z,0.80
2019-03-28T00:39:01.256Z,0.80
2019-03-28T00:41:22.968Z,0.90
2019-03-28T00:43:43.474Z,0.90
2019-03-28T00:46:04.026Z,0.90
2019-03-28T00:48:24.793Z,0.90
2019-03-28T00:50:45.442Z,0.80
2019-03-28T00:53:06.878Z,0.90
2019-03-28T00:55:27.327Z,0.70
2019-03-28T00:57:47.942Z,0.60
2019-03-28T01:00:09.059Z,0.50
2019-03-28T01:02:29.850Z,0.60
2019-03-28T01:04:50.396Z,0.50
2019-03-28T01:07:10.836Z,0.40
2019-03-28T01:09:31.724Z,0.50
2019-03-28T01:11:52.289Z,0.60
2019-03-28T01:14:12.889Z,0.60
2019-03-28T01:16:33.564Z,0.50
2019-03-28T01:18:54.125Z,0.50
2019-03-28T01:21:14.712Z,0.60
2019-03-28T01:23:35.181Z,0.50
2019-03-28T01:25:55.769Z,0.50
2019-03-28T01:28:16.388Z,0.40
2019-03-28T01:30:37.106Z,0.40
2019-03-28T01:32:58.405Z,0.40
2019-03-28T01:35:19.095Z,0.40
2019-03-28T01:37:39.637Z,0.50
2019-03-28T01:40:00.376Z,0.50
2019-03-28T01:42:21.286Z,0.60
2019-03-28T01:44:41.900Z,0.50
2019-03-28T01:47:02.457Z,0.60
2019-03-28T01:49:23.000Z,0.50
2019-03-28T01:51:46.648Z,0.50
2019-03-28T01:54:07.194Z,0.50
2019-03-28T01:56:27.660Z,0.50
2019-03-28T01:58:48.338Z,0.50
2019-03-28T02:01:09.283Z,0.60
2019-03-28T02:03:29.856Z,0.50
2019-03-28T02:05:50.621Z,0.50
2019-03-28T02:08:11.261Z,0.50
2019-03-28T02:10:31.901Z,0.50
2019-03-28T02:12:52.683Z,0.50
2019-03-28T02:15:13.633Z,0.50
2019-03-28T02:17:34.191Z,0.50
2019-03-28T02:19:55.634Z,0.40
2019-03-28T02:22:16.148Z,0.40
2019-03-28T02:24:36.664Z,0.40
2019-03-28T02:26:57.427Z,0.30
2019-03-28T02:29:18.100Z,0.30
2019-03-28T02:31:38.643Z,0.30
2019-03-28T02:33:59.259Z,0.40
2019-03-28T02:36:19.962Z,0.40
2019-03-28T02:38:40.761Z,0.40
2019-03-28T02:41:01.462Z,0.40
2019-03-28T02:43:22.036Z,0.40
2019-03-28T02:45:42.653Z,0.40
2019-03-28T02:48:03.216Z,0.30
2019-03-28T02:50:23.846Z,0.40
2019-03-28T02:52:44.434Z,0.40
2019-03-28T02:55:07.122Z,0.40
2019-03-28T02:57:40.059Z,0.50
2019-03-28T02:59:48.293Z,0.40
2019-03-28T03:02:09.022Z,0.50
2019-03-28T03:04:30.632Z,0.30
2019-03-28T03:06:51.198Z,0.30
2019-03-28T03:09:11.808Z,0.30
2019-03-28T03:11:32.590Z,0.40
2019-03-28T03:13:53.145Z,0.30
2019-03-28T03:16:13.905Z,0.30
2019-03-28T03:18:34.433Z,0.40
2019-03-28T03:20:55.077Z,0.30
2019-03-28T03:23:15.678Z,0.30
2019-03-28T03:25:48.048Z,0.30
2019-03-28T03:28:08.279Z,0.30
2019-03-28T03:30:31.385Z,0.20
2019-03-28T03:32:50.998Z,0.30
2019-03-28T03:35:12.011Z,0.40
2019-03-28T03:37:32.602Z,0.40
2019-03-28T03:39:53.351Z,0.30
2019-03-28T03:42:13.986Z,0.30
2019-03-28T03:44:34.527Z,0.20
2019-03-28T03:46:55.047Z,0.30
2019-03-28T03:49:15.573Z,0.30
2019-03-28T03:51:36.207Z,0.40
2019-03-28T03:53:57.022Z,0.40
2019-03-28T03:56:17.649Z,0.30
2019-03-28T03:58:38.266Z,0.30
2019-03-28T04:00:58.900Z,0.20
2019-03-28T04:03:19.554Z,0.30
2019-03-28T04:05:40.286Z,0.30
2019-03-28T04:08:00.952Z,0.40
2019-03-28T04:10:21.533Z,0.30
2019-03-28T04:12:42.031Z,0.40
2019-03-28T04:15:02.572Z,0.40
2019-03-28T04:17:23.214Z,0.50
2019-03-28T04:19:43.825Z,0.40
2019-03-28T04:22:04.459Z,0.40
2019-03-28T04:24:24.983Z,0.50
2019-03-28T04:26:45.573Z,0.60
2019-03-28T04:29:06.140Z,0.70
2019-03-28T04:31:26.677Z,0.70
2019-03-28T04:33:49.270Z,0.70
2019-03-28T04:36:09.690Z,0.70
2019-03-28T04:38:30.390Z,0.80
2019-03-28T04:40:53.792Z,0.80
2019-03-28T04:43:12.976Z,0.90
2019-03-28T04:45:33.436Z,0.90
2019-03-28T04:47:53.956Z,0.70
2019-03-28T04:50:14.856Z,0.80
2019-03-28T04:52:35.465Z,0.80
2019-03-28T04:54:56.093Z,0.90
2019-03-28T04:57:29.554Z,1.00
2019-03-28T04:59:50.194Z,1.00
2019-03-28T05:02:10.787Z,1.00
2019-03-28T05:04:31.422Z,1.10
2019-03-28T05:06:51.897Z,1.20
2019-03-28T05:09:12.360Z,1.30
2019-03-28T05:11:33.387Z,1.40
2019-03-28T05:13:54.072Z,1.40
2019-03-28T05:16:14.755Z,1.50
2019-03-28T05:18:35.275Z,1.50
2019-03-28T05:20:55.843Z,1.40
2019-03-28T05:23:16.632Z,1.50
2019-03-28T05:25:37.650Z,1.50
2019-03-28T05:27:59.321Z,1.40
2019-03-28T05:30:20.016Z,1.30
2019-03-28T05:32:40.594Z,1.40
2019-03-28T05:35:07.429Z,1.50
2019-03-28T05:37:29.020Z,1.70
2019-03-28T05:39:49.740Z,1.80
2019-03-28T05:42:10.280Z,1.80
2019-03-28T05:44:30.772Z,1.90
2019-03-28T05:46:57.419Z,2.00
2019-03-28T05:49:18.180Z,2.10
2019-03-28T05:51:39.134Z,2.20
2019-03-28T05:54:00.775Z,2.10
2019-03-28T05:56:21.452Z,2.20
2019-03-28T05:58:42.256Z,2.30
2019-03-28T06:01:02.878Z,2.40
2019-03-28T06:03:23.496Z,2.40
2019-03-28T06:05:44.194Z,2.50
2019-03-28T06:08:04.756Z,2.60
2019-03-28T06:10:25.367Z,2.70
2019-03-28T06:12:45.974Z,2.70
2019-03-28T06:15:08.286Z,2.80
2019-03-28T06:17:28.536Z,3.00
2019-03-28T06:19:49.137Z,3.10
2019-03-28T06:22:09.762Z,3.20
2019-03-28T06:24:31.232Z,3.30
2019-03-28T06:26:51.931Z,3.50
2019-03-28T06:29:23.300Z,3.60
2019-03-28T06:31:35.110Z,3.80
2019-03-28T06:33:56.736Z,3.70
2019-03-28T06:36:17.217Z,3.80
2019-03-28T06:38:37.698Z,3.80
2019-03-28T06:40:58.251Z,3.80
2019-03-28T06:43:18.710Z,3.90
2019-03-28T06:45:39.548Z,4.00
2019-03-28T06:48:00.151Z,4.10
2019-03-28T06:50:20.812Z,4.30
2019-03-28T06:52:41.339Z,4.40
2019-03-28T06:55:02.004Z,4.40
2019-03-28T06:57:22.602Z,4.60
2019-03-28T06:59:43.307Z,4.70
2019-03-28T07:02:04.007Z,4.90
2019-03-28T07:04:24.564Z,5.40
2019-03-28T07:06:45.344Z,5.80
2019-03-28T07:09:08.314Z,6.20
2019-03-28T07:11:28.680Z,6.50
2019-03-28T07:13:49.242Z,6.40
2019-03-28T07:16:15.986Z,6.50
2019-03-28T07:18:42.800Z,6.30
2019-03-28T07:21:03.264Z,6.50
2019-03-28T07:23:24.781Z,6.80
2019-03-28T07:25:45.387Z,6.90
2019-03-28T07:28:06.503Z,6.60
2019-03-28T07:30:27.447Z,6.80
2019-03-28T07:32:48.174Z,6.90
2019-03-28T07:35:09.176Z,7.00
2019-03-28T07:37:29.716Z,7.30
2019-03-28T07:39:50.346Z,7.60
2019-03-28T07:42:11.203Z,7.90
2019-03-28T07:44:31.769Z,8.00
2019-03-28T07:46:52.319Z,7.90
2019-03-28T07:49:12.848Z,7.80
2019-03-28T07:51:33.353Z,7.70
2019-03-28T07:53:54.319Z,7.60
2019-03-28T07:56:14.953Z,7.60
2019-03-28T07:58:35.675Z,7.70
2019-03-28T08:00:56.375Z,7.70
2019-03-28T08:03:16.902Z,8.20
2019-03-28T08:05:37.596Z,8.40
2019-03-28T08:07:58.377Z,8.40
2019-03-28T08:10:19.050Z,8.30
2019-03-28T08:12:39.707Z,8.90
2019-03-28T08:15:00.383Z,8.70
2019-03-28T08:17:20.895Z,8.50
2019-03-28T08:19:41.873Z,8.60
2019-03-28T08:22:02.512Z,8.80
2019-03-28T08:24:23.140Z,8.80
2019-03-28T08:26:43.088Z,8.80
2019-03-28T08:29:10.161Z,9.00
2019-03-28T08:31:30.159Z,9.10
2019-03-28T08:33:50.735Z,9.00
2019-03-28T08:36:11.878Z,9.20
2019-03-28T08:38:35.605Z,10.30
2019-03-28T08:40:55.666Z,10.50
2019-03-28T08:43:16.336Z,10.00
2019-03-28T08:45:37.521Z,9.50
2019-03-28T08:47:57.811Z,9.50
2019-03-28T08:50:18.469Z,9.70
2019-03-28T08:52:39.196Z,9.70
2019-03-28T08:54:59.129Z,9.70
2019-03-28T08:57:19.760Z,9.40
2019-03-28T09:02:31.083Z,9.20
2019-03-28T09:04:52.093Z,9.50
2019-03-28T09:07:12.886Z,9.70
2019-03-28T09:09:33.564Z,10.00
2019-03-28T09:11:53.661Z,10.20
2019-03-28T09:14:19.263Z,10.20
2019-03-28T09:16:40.321Z,10.00
2019-03-28T09:21:39.609Z,9.50
2019-03-28T09:24:00.382Z,10.00
2019-03-28T09:26:21.110Z,10.30
2019-03-28T09:28:41.657Z,10.60
2019-03-28T09:31:01.860Z,10.50
2019-03-28T09:33:22.687Z,10.50
2019-03-28T09:35:42.963Z,10.30
2019-03-28T09:38:03.900Z,10.30
2019-03-28T09:40:24.517Z,10.40
2019-03-28T09:42:45.119Z,10.70
2019-03-28T09:45:08.758Z,10.30
2019-03-28T09:47:31.433Z,10.50
2019-03-28T09:49:51.718Z,10.40
2019-03-28T09:52:17.737Z,10.40
2019-03-28T09:54:38.440Z,10.20
2019-03-28T09:56:59.200Z,10.10
2019-03-28T09:59:19.792Z,10.20
2019-03-28T10:01:40.963Z,10.20
2019-03-28T10:04:01.505Z,10.10
2019-03-28T10:06:22.146Z,9.90
2019-03-28T10:08:42.681Z,10.00
2019-03-28T10:11:03.456Z,10.00
2019-03-28T10:13:24.144Z,9.90
2019-03-28T10:16:18.449Z,10.10
2019-03-28T10:18:44.637Z,10.50
2019-03-28T10:21:05.397Z,10.30
2019-03-28T10:23:25.381Z,10.70
2019-03-28T10:25:46.112Z,10.70
2019-03-28T10:28:06.354Z,10.70
2019-03-28T10:30:41.688Z,11.00
2019-03-28T10:33:02.252Z,11.00
2019-03-28T10:35:27.267Z,11.40
2019-03-28T10:37:47.857Z,11.40
2019-03-28T10:40:08.633Z,11.30
2019-03-28T10:42:28.696Z,11.50
2019-03-28T10:44:55.258Z,11.60
2019-03-28T10:47:15.544Z,11.50
2019-03-28T10:49:35.659Z,11.50
2019-03-28T10:51:56.279Z,11.80
2019-03-28T10:54:20.481Z,12.00
2019-03-28T10:56:51.001Z,11.60
2019-03-28T10:59:00.976Z,11.90
2019-03-28T11:01:41.492Z,11.80
2019-03-28T11:03:44.217Z,11.70
2019-03-28T11:06:04.376Z,11.60
2019-03-28T11:08:24.996Z,11.70
2019-03-28T11:10:45.613Z,11.80
2019-03-28T11:13:09.366Z,11.80
2019-03-28T11:15:28.460Z,11.90
2019-03-28T11:17:48.991Z,11.70
2019-03-28T11:20:09.776Z,11.80
2019-03-28T11:22:30.165Z,12.10
2019-03-28T11:24:51.853Z,12.20
2019-03-28T11:27:11.905Z,12.50
2019-03-28T11:29:31.988Z,12.50
2019-03-28T11:31:52.696Z,12.40
2019-03-28T11:34:13.448Z,12.30
2019-03-28T11:36:33.332Z,12.20
2019-03-28T11:38:54.873Z,12.10
2019-03-28T11:41:21.347Z,12.10
2019-03-28T11:43:41.603Z,12.30
2019-03-28T11:46:01.825Z,12.30
2019-03-28T11:48:22.297Z,12.30
2019-03-28T11:50:43.794Z,12.40
2019-03-28T11:53:03.815Z,12.50
2019-03-28T11:55:24.534Z,12.40
2019-03-28T11:57:44.795Z,12.60
2019-03-28T12:00:14.196Z,12.60
2019-03-28T12:02:34.379Z,12.70
2019-03-28T12:04:54.608Z,12.80
2019-03-28T12:07:14.956Z,13.00
2019-03-28T12:09:37.512Z,12.80
2019-03-28T12:11:58.132Z,12.80
2019-03-28T12:14:19.830Z,12.90
2019-03-28T12:16:40.328Z,13.00
2019-03-28T12:19:00.855Z,13.00
2019-03-28T12:21:21.223Z,13.10
2019-03-28T12:23:41.880Z,13.30
2019-03-28T12:26:01.873Z,13.40
2019-03-28T12:28:21.853Z,13.40
2019-03-28T12:30:42.206Z,13.50
2019-03-28T12:33:02.471Z,13.70
2019-03-28T12:35:22.748Z,13.60
2019-03-28T12:37:43.037Z,13.90
2019-03-28T12:40:04.272Z,14.20
2019-03-28T12:42:24.520Z,14.10
2019-03-28T12:44:56.371Z,14.30
2019-03-28T12:47:06.533Z,13.80
2019-03-28T12:49:26.964Z,13.60
2019-03-28T12:51:47.366Z,13.30
2019-03-28T12:54:07.824Z,13.50
2019-03-28T12:56:28.140Z,13.60
2019-03-28T12:58:48.644Z,13.30
2019-03-28T13:01:09.312Z,13.00
2019-03-28T13:03:34.811Z,13.00
2019-03-28T13:05:51.633Z,13.60
2019-03-28T13:08:11.904Z,15.90
2019-03-28T13:10:32.152Z,15.40
2019-03-28T13:12:52.600Z,15.60
2019-03-28T13:15:13.618Z,15.90
2019-03-28T13:17:34.072Z,16.10
2019-03-28T13:19:54.323Z,14.70
2019-03-28T13:22:14.663Z,13.90
2019-03-28T13:24:34.828Z,13.90
2019-03-28T13:26:55.260Z,14.00
2019-03-28T13:29:15.625Z,14.10
2019-03-28T13:31:35.886Z,14.30
2019-03-28T13:33:56.238Z,13.90
2019-03-28T13:36:16.597Z,15.20
2019-03-28T13:38:36.908Z,15.90
2019-03-28T13:40:57.371Z,15.30
2019-03-28T13:43:18.544Z,15.20
2019-03-28T13:45:40.426Z,14.20
2019-03-28T13:48:00.765Z,15.40
2019-03-28T13:50:21.635Z,14.70
2019-03-28T13:52:41.884Z,14.10
2019-03-28T13:55:02.211Z,13.90
2019-03-28T13:57:22.600Z,13.60
2019-03-28T13:59:42.791Z,13.90
2019-03-28T14:02:03.146Z,13.70
2019-03-28T14:04:23.433Z,15.80
2019-03-28T14:06:43.724Z,14.80
2019-03-28T14:09:06.891Z,16.80
2019-03-28T14:11:28.579Z,18.30
2019-03-28T14:13:48.934Z,18.40
2019-03-28T14:16:09.288Z,19.00
2019-03-28T14:18:29.560Z,19.50
2019-03-28T14:20:49.786Z,19.90
2019-03-28T14:23:09.957Z,19.30
2019-03-28T14:25:31.498Z,17.30
2019-03-28T14:27:51.880Z,16.10
2019-03-28T14:30:12.582Z,16.20
2019-03-28T14:32:33.143Z,16.50
2019-03-28T14:34:53.581Z,15.70
2019-03-28T14:37:16.882Z,16.40
2019-03-28T14:39:35.824Z,16.10
2019-03-28T14:41:56.008Z,16.00
2019-03-28T14:44:16.190Z,15.70
2019-03-28T14:46:36.448Z,16.10
2019-03-28T14:48:56.951Z,15.30
2019-03-28T14:51:17.427Z,15.30
2019-03-28T14:53:37.785Z,15.00
2019-03-28T14:55:58.489Z,14.60
2019-03-28T14:58:21.968Z,15.80
2019-03-28T15:00:49.636Z,16.20
2019-03-28T15:03:24.546Z,17.30
2019-03-28T15:05:32.876Z,16.10
2019-03-28T15:07:53.029Z,15.50
2019-03-28T15:10:12.979Z,16.80
2019-03-28T15:12:32.872Z,18.40
2019-03-28T15:14:53.246Z,16.30
2019-03-28T15:17:13.687Z,15.00
2019-03-28T15:19:35.570Z,14.90
2019-03-28T15:21:55.968Z,17.20
2019-03-28T15:24:15.941Z,18.60
2019-03-28T15:26:36.025Z,19.10
2019-03-28T15:28:56.015Z,18.20
2019-03-28T15:31:15.944Z,17.30
2019-03-28T15:33:39.885Z,17.50
2019-03-28T15:35:57.529Z,18.60
2019-03-28T15:38:17.594Z,17.30
2019-03-28T15:40:37.632Z,15.90
2019-03-28T15:42:57.547Z,15.20
2019-03-28T15:45:17.540Z,14.80
2019-03-28T15:47:37.566Z,14.60
2019-03-28T15:49:57.966Z,14.50
2019-03-28T15:52:18.282Z,14.30
2019-03-28T15:54:38.561Z,14.30
2019-03-28T15:57:04.870Z,14.10
2019-03-28T15:59:25.020Z,14.00
2019-03-28T16:01:45.365Z,13.80
2019-03-28T16:04:05.720Z,13.80
2019-03-28T16:06:25.977Z,13.70
2019-03-28T16:08:46.244Z,13.60
2019-03-28T16:11:06.989Z,13.50
2019-03-28T16:13:27.028Z,13.50
2019-03-28T16:15:47.053Z,13.40
2019-03-28T16:18:07.151Z,13.30
2019-03-28T16:20:27.143Z,13.30
2019-03-28T16:22:47.226Z,13.30
2019-03-28T16:25:07.761Z,13.20
2019-03-28T16:27:28.312Z,13.20
2019-03-28T16:29:48.592Z,13.10
2019-03-28T16:32:09.808Z,13.10
2019-03-28T16:34:30.450Z,13.00
2019-03-28T16:36:50.572Z,13.00
2019-03-28T16:39:11.139Z,13.00
2019-03-28T16:41:33.266Z,12.90
2019-03-28T16:43:54.028Z,12.90
2019-03-28T16:46:18.640Z,12.80
2019-03-28T16:48:39.212Z,12.80
2019-03-28T16:50:59.921Z,12.70
2019-03-28T16:53:20.674Z,12.70
2019-03-28T16:55:40.669Z,12.70
2019-03-28T16:58:00.685Z,12.70
2019-03-28T17:00:24.346Z,12.60
2019-03-28T17:02:44.984Z,12.60
2019-03-28T17:05:06.906Z,12.50
2019-03-28T17:07:29.549Z,12.50
2019-03-28T17:09:50.020Z,12.40
2019-03-28T17:12:10.574Z,12.40
2019-03-28T17:14:30.717Z,12.40
2019-03-28T17:16:50.745Z,12.40
2019-03-28T17:19:11.349Z,12.40
2019-03-28T17:21:31.445Z,12.30
2019-03-28T17:23:52.128Z,12.30
2019-03-28T17:26:12.696Z,12.30
2019-03-28T17:28:33.178Z,12.30
2019-03-28T17:30:54.803Z,12.30
2019-03-28T17:33:17.849Z,12.20
2019-03-28T17:35:37.707Z,12.10
2019-03-28T17:37:58.090Z,12.10
2019-03-28T17:40:18.195Z,12.10
2019-03-28T17:42:38.428Z,12.10
2019-03-28T17:44:59.601Z,12.00
2019-03-28T17:47:26.325Z,12.00
2019-03-28T17:49:46.997Z,11.90
2019-03-28T17:52:07.656Z,11.90
2019-03-28T17:54:27.816Z,11.90
2019-03-28T17:56:47.972Z,11.90
2019-03-28T17:59:08.740Z,11.80
2019-03-28T18:01:29.329Z,11.80
2019-03-28T18:03:50.140Z,11.80
2019-03-28T18:06:10.673Z,11.80
2019-03-28T18:08:31.451Z,11.70
2019-03-28T18:10:52.068Z,11.80
2019-03-28T18:13:12.828Z,11.70
2019-03-28T18:15:33.164Z,11.60
2019-03-28T18:17:53.814Z,11.60
2019-03-28T18:20:15.635Z,11.60
2019-03-28T18:22:36.390Z,11.60
2019-03-28T18:24:56.983Z,11.50
2019-03-28T18:27:17.622Z,11.50
2019-03-28T18:29:37.697Z,11.40
2019-03-28T18:31:58.234Z,11.30
2019-03-28T18:34:18.837Z,11.40
2019-03-28T18:36:39.591Z,11.30
2019-03-28T18:38:59.603Z,11.30
2019-03-28T18:41:20.203Z,11.40
2019-03-28T18:43:40.155Z,11.30
2019-03-28T18:46:00.710Z,11.30
2019-03-28T18:48:29.240Z,11.30
2019-03-28T18:50:43.533Z,11.20
2019-03-28T18:53:04.081Z,11.20
2019-03-28T18:55:24.578Z,11.20
2019-03-28T18:57:46.335Z,11.10
2019-03-28T19:00:08.936Z,11.10
2019-03-28T19:02:29.192Z,11.00
2019-03-28T19:04:51.372Z,11.00
2019-03-28T19:07:12.031Z,11.00
2019-03-28T19:09:44.261Z,10.90
2019-03-28T19:12:07.062Z,10.90
2019-03-28T19:14:27.718Z,10.90
2019-03-28T19:16:49.576Z,10.80
2019-03-28T19:19:10.620Z,10.70
2019-03-28T19:21:31.147Z,10.70
2019-03-28T19:23:51.750Z,10.60
2019-03-28T19:26:12.443Z,10.60
2019-03-28T19:28:33.031Z,10.60
2019-03-28T19:30:53.816Z,10.50
2019-03-28T19:33:14.901Z,10.50
2019-03-28T19:35:36.446Z,10.50
2019-03-28T19:37:58.253Z,10.50
2019-03-28T19:40:19.198Z,10.40
2019-03-28T19:42:40.137Z,10.40
2019-03-28T19:45:00.779Z,10.40
2019-03-28T19:47:21.330Z,10.40
2019-03-28T19:49:41.726Z,10.40
2019-03-28T19:52:02.254Z,10.40
2019-03-28T19:54:22.968Z,10.50
2019-03-28T19:56:43.480Z,10.50
2019-03-28T19:59:04.154Z,10.40
2019-03-28T20:01:24.768Z,10.40
2019-03-28T20:03:46.971Z,10.40
2019-03-28T20:06:21.264Z,10.40
2019-03-28T20:08:29.973Z,10.40
2019-03-28T20:10:50.540Z,10.30
2019-03-28T20:13:11.179Z,10.40
2019-03-28T20:15:31.731Z,10.40
2019-03-28T20:17:52.210Z,10.30
2019-03-28T20:20:12.814Z,10.30
2019-03-28T20:22:34.627Z,10.20
2019-03-28T20:24:58.166Z,10.20
2019-03-28T20:27:16.899Z,10.10
2019-03-28T20:29:40.115Z,10.00
2019-03-28T20:32:00.823Z,10.00
2019-03-28T20:34:21.351Z,9.90
2019-03-28T20:36:44.060Z,9.90
2019-03-28T20:39:07.119Z,10.00
2019-03-28T20:41:27.750Z,10.10
2019-03-28T20:43:48.292Z,10.00
2019-03-28T20:46:08.810Z,9.90
2019-03-28T20:48:29.340Z,9.80
2019-03-28T20:50:49.965Z,10.00
2019-03-28T20:53:11.201Z,10.00
2019-03-28T20:55:32.358Z,10.00
2019-03-28T20:57:53.123Z,10.00
2019-03-28T21:00:14.436Z,10.00
2019-03-28T21:02:34.925Z,9.90
2019-03-28T21:04:55.535Z,9.90
2019-03-28T21:07:19.212Z,9.90
2019-03-28T21:09:39.765Z,9.90
2019-03-28T21:12:00.294Z,9.90
2019-03-28T21:14:20.841Z,9.90
2019-03-28T21:16:41.375Z,9.90
2019-03-28T21:19:02.340Z,9.90
2019-03-28T21:21:22.879Z,9.80
2019-03-28T21:23:43.377Z,9.70
2019-03-28T21:26:04.016Z,9.60
2019-03-28T21:28:25.164Z,9.50
2019-03-28T21:30:47.670Z,9.50
2019-03-28T21:33:08.223Z,9.60
2019-03-28T21:35:28.811Z,9.70
2019-03-28T21:37:49.338Z,9.70
2019-03-28T21:40:10.097Z,9.80
2019-03-28T21:42:30.692Z,9.70
2019-03-28T21:44:51.311Z,9.70
2019-03-28T21:47:11.866Z,9.60
2019-03-28T21:49:32.342Z,9.50
2019-03-28T21:51:52.984Z,9.50
2019-03-28T21:54:13.562Z,9.50
2019-03-28T21:56:33.538Z,9.50
2019-03-28T21:58:55.216Z,9.40
2019-03-28T22:01:15.790Z,9.40
2019-03-28T22:03:39.659Z,9.30
2019-03-28T22:05:59.034Z,9.20
2019-03-28T22:08:19.544Z,9.30
2019-03-28T22:10:40.169Z,9.30
2019-03-28T22:13:00.787Z,9.30
2019-03-28T22:15:21.308Z,9.40
2019-03-28T22:17:42.077Z,9.50
2019-03-28T22:20:02.941Z,9.50
2019-03-28T22:22:23.553Z,9.50
2019-03-28T22:24:44.078Z,9.40
2019-03-28T22:27:04.671Z,9.40
2019-03-28T22:29:25.310Z,9.30
2019-03-28T22:31:45.842Z,9.30
2019-03-28T22:34:06.282Z,9.20
2019-03-28T22:36:26.904Z,9.20
2019-03-28T22:38:47.455Z,9.20
2019-03-28T22:41:09.507Z,9.20
2019-03-28T22:43:30.162Z,9.50
2019-03-28T22:45:50.678Z,9.50
2019-03-28T22:48:12.386Z,9.60
2019-03-28T22:50:34.625Z,9.60
2019-03-28T22:52:55.148Z,9.60
2019-03-28T22:55:15.800Z,9.70
2019-03-28T22:57:43.702Z,9.70
2019-03-28T23:00:07.690Z,9.80
2019-03-28T23:02:29.930Z,9.80
2019-03-28T23:04:50.493Z,9.80
2019-03-28T23:07:11.570Z,9.80
2019-03-28T23:09:32.187Z,9.70
2019-03-28T23:11:52.937Z,9.80
2019-03-28T23:14:13.491Z,9.90
2019-03-28T23:16:34.013Z,10.00
2019-03-28T23:18:54.741Z,9.90
2019-03-28T23:21:15.897Z,9.80
2019-03-28T23:23:38.056Z,9.80
2019-03-28T23:26:00.162Z,9.70
2019-03-28T23:28:20.713Z,9.70
2019-03-28T23:30:41.904Z,9.80
2019-03-28T23:33:02.498Z,9.70
2019-03-28T23:35:22.604Z,9.70
2019-03-28T23:37:43.425Z,9.50
2019-03-28T23:40:05.959Z,9.50
2019-03-28T23:42:26.345Z,9.50
2019-03-28T23:44:46.961Z,9.40
2019-03-28T23:47:07.534Z,9.40
2019-03-28T23:49:29.148Z,9.40
2019-03-28T23:51:50.277Z,9.40
2019-03-28T23:54:11.300Z,9.30
2019-03-28T23:56:40.870Z,9.30
2019-03-28T23:59:01.379Z,9.20
